Share

Springfield, CO

9:50 AM MDT on April 24, 2014 (GMT -0600)
RAWS UTE CANYON CO US (MUCNC2) Elev 4372 ft | 37.06 °N, 102.63 °W | Change Station

Current weather conditions updated 51 minutes ago

Clear
Clear
51 °F
Feels Like 51 °F
N
25
Wind Variable Wind from NNW
Gusts 33.0 mph
Sunrise 6:03 AM
Sunset 7:33 PM
Moon Waning Crescent

Today is forecast to be Much Cooler than yesterday.

Pressure 29.93 in
Visibility 10.0 miles
Clouds Clear
Dew Point 29 °F
Humidity 42%
Rainfall 0.02 in
Snow Depth Not available.
UV 4 out of 16
Pollen 10.00 out of 12
Air Quality Not available.
Flu Activity Sporadic
METAR KLAA 241453Z AUTO 33012KT 10SM CLR 11/M02 A3000 RMK AO2 SLP134 T01111017 53019

More Conditions Fewer Conditions

Pressure 29.93 in
Visibility 10.0 miles
Clouds Clear
Dew Point 29 °F
Humidity 42%
Rainfall 0.02 in
Snow Depth Not available.
UV 4 out of 16
Pollen 10.00 out of 12
Air Quality Not available.
Flu Activity Sporadic
METAR KLAA 241453Z AUTO 33012KT 10SM CLR 11/M02 A3000 RMK AO2 SLP134 T01111017 53019

More Conditions Fewer Conditions

10-Day Weather Forecast

Almanac

Astronomy

Apr. 24, 2014 Rise Set
Actual Time 6:03 AM MDT 7:33 PM MDT
Civil Twilight 5:36 AM MDT 8:01 PM MDT
Nautical Twilight 5:03 AM MDT 8:34 PM MDT
Astronomical Twilight 4:28 AM MDT 9:09 PM MDT
Moon 3:09 AM MDT 2:57 PM MDT
Length of Visible Light 14h 24m
Length of Day
13h 29m
Tomorrow will be 2m 9s longer.
Waning Crescent, 25% of the Moon is Illuminated
Today
Waning Crescent
Apr 29
New
May 6
First Quarter
May 14
Full
May 21
Last Quarter

Today's Extremes

State Highs State Lows

Community

  • Sunset at Apalachicola Bay, Florida
    Sunset at Apalachicola Bay, Florida
  • Clouds mov'n in
    Clouds mov'n in
  • Stacked
    Stacked
  • clouds approaching Red Sox Nation
    clouds approaching Red Sox Nation
  • Balance
    Balance

WunderPhotos

Upload Photos

1,704,653 photos uploaded!

Nearby

Snow Depth

Station Depth Elevation
Apishapa 0 in 10000 ft
Whiskey Creek 18 in 10220 ft
Culebra #2 26 in 10500 ft
Trinchera 12 in 10860 ft
Ute Creek 24 in 10650 ft

Coastal Water Temperatures

Place Temperature
No Stations Reporting

Earthquake Activity

City Distance Mag. Time & Date
No recent earthquake activity has been reported nearby.
Minimum magnitude displayed is 2.5.

Nearby Weather Stations

Station Location Temp. Windchill Dew Point Humidity Wind Precip. Elev Updated Type
HCN COMANCHE GRASS SPRINGFIELD 6 WSW CO , Springfield, CO 49 °F 49 °F - - North  at  - 0.00 in / hr 4557 ft 9:15 AM MDT MADIS
RAWS UTE CANYON CO, Campo, CO 51 °F - 29 °F 42% NNW  at  25 mph 0.00 in / hr 4372 ft 8:59 AM MDT MADIS

Show More Stations Show Fewer Stations

What do you think?

We're not finished. Please let us know what you like, what you don't like, and what you are still missing.